Portada
METAR-TAF:

METAR-TAF

Aeropuertos :

Morón de la Frontera, España

Base Aérea de Morón

latitud: 37-09N, longitud: 005-37W, altitud: 87 m

Observación

El informe se hizo hace 19 minutos, a las 18:00 UTC
Viento 5 kt del oeste-noroeste, variando entre oeste y noroeste
Temperatura 29°C
Humedad 33%
Presión 1017 hPa
Visibilidad 10 km o más
sin nubes por debajo de 1500 m y sin presencia de cumulonimbus.

METAR: LEMO 231800Z 29005KT 260V320 CAVOK 29/11 Q1017 NOSIG

Hora: 20:19 (18:19 UTC)

Pronóstico

El informe se hizo hace 1 hora y 19 minutos, a las 17:00 UTC
Pronóstico válido del 23 a las 18 UTC al 24 a las 03 UTC
Viento 5 kt del oeste-suroeste
Visibilidad 10 km o más
sin nubes por debajo de 1500 m y sin presencia de cumulonimbus.

TAF: LEMO 231700Z 2318/2403 25005KT CAVOK

Observaciones y pronósticos meteorológicos de más de 4000 aeropuertos (mensajes METAR y TAF).

Los puntos amarillos y rojos representan las estaciones disponibles.

Ponga el ratón en el punto deseado para ver el nombre de la estación.

Haga clic para ver las observaciones y los pronósticos meteorológicos.

Para cambiar el mapa : haga clic en los botones verdes con una cruz de color negro para hacer un zoom, en el botón verde con un guión para alejar o en las flechas verdes para mapas adyacentes.


METAR-TAF: